sensor_id;sensor_type;location;lat;lon;timestamp;temperature;humidity
55004;DHT22;40900;52.710;6.438;2023-07-31T00:01:15;15.70;99.90
55004;DHT22;40900;52.710;6.438;2023-07-31T00:03:40;15.60;99.90
55004;DHT22;40900;52.710;6.438;2023-07-31T00:06:06;15.50;99.90
55004;DHT22;40900;52.710;6.438;2023-07-31T00:08:32;15.50;99.90
55004;DHT22;40900;52.710;6.438;2023-07-31T00:10:58;15.50;99.90
55004;DHT22;40900;52.710;6.438;2023-07-31T00:13:23;15.40;99.90
55004;DHT22;40900;52.710;6.438;2023-07-31T00:15:49;15.40;99.90
55004;DHT22;40900;52.710;6.438;2023-07-31T00:18:15;15.40;99.90
55004;DHT22;40900;52.710;6.438;2023-07-31T00:20:41;15.30;99.90
55004;DHT22;40900;52.710;6.438;2023-07-31T00:23:07;15.30;99.90
55004;DHT22;40900;52.710;6.438;2023-07-31T00:25:32;15.30;99.90
55004;DHT22;40900;52.710;6.438;2023-07-31T00:27:58;15.30;99.90
55004;DHT22;40900;52.710;6.438;2023-07-31T00:30:24;15.30;99.90
55004;DHT22;40900;52.710;6.438;2023-07-31T00:32:50;15.30;99.90
55004;DHT22;40900;52.710;6.438;2023-07-31T00:35:16;15.30;99.90
55004;DHT22;40900;52.710;6.438;2023-07-31T00:37:42;15.30;99.90
55004;DHT22;40900;52.710;6.438;2023-07-31T00:40:08;15.30;99.90
55004;DHT22;40900;52.710;6.438;2023-07-31T00:42:34;15.30;99.90
55004;DHT22;40900;52.710;6.438;2023-07-31T00:45:00;15.10;99.90
55004;DHT22;40900;52.710;6.438;2023-07-31T00:47:26;15.30;99.90
55004;DHT22;40900;52.710;6.438;2023-07-31T00:49:52;15.30;99.90
55004;DHT22;40900;52.710;6.438;2023-07-31T00:52:18;15.20;99.90
55004;DHT22;40900;52.710;6.438;2023-07-31T00:54:44;15.10;99.90
55004;DHT22;40900;52.710;6.438;2023-07-31T00:57:10;15.10;99.90
55004;DHT22;40900;52.710;6.438;2023-07-31T00:59:36;15.10;99.90
55004;DHT22;40900;52.710;6.438;2023-07-31T01:02:02;15.10;99.90
55004;DHT22;40900;52.710;6.438;2023-07-31T01:04:29;15.10;99.90
55004;DHT22;40900;52.710;6.438;2023-07-31T01:07:02;15.10;99.90
55004;DHT22;40900;52.710;6.438;2023-07-31T01:12:02;15.10;99.90
55004;DHT22;40900;52.710;6.438;2023-07-31T01:14:29;15.10;99.90
55004;DHT22;40900;52.710;6.438;2023-07-31T01:16:55;15.20;99.90
55004;DHT22;40900;52.710;6.438;2023-07-31T01:19:25;15.10;99.90
55004;DHT22;40900;52.710;6.438;2023-07-31T01:22:04;15.10;99.90
55004;DHT22;40900;52.710;6.438;2023-07-31T01:24:48;15.10;99.90
55004;DHT22;40900;52.710;6.438;2023-07-31T01:27:21;15.10;99.90
55004;DHT22;40900;52.710;6.438;2023-07-31T01:30:10;15.10;99.90
55004;DHT22;40900;52.710;6.438;2023-07-31T01:32:41;15.10;99.90
55004;DHT22;40900;52.710;6.438;2023-07-31T01:35:08;15.10;99.90
55004;DHT22;40900;52.710;6.438;2023-07-31T01:37:34;15.20;99.90
55004;DHT22;40900;52.710;6.438;2023-07-31T01:40:00;15.00;99.90
55004;DHT22;40900;52.710;6.438;2023-07-31T01:42:26;15.10;99.90
55004;DHT22;40900;52.710;6.438;2023-07-31T01:44:52;15.10;99.90
55004;DHT22;40900;52.710;6.438;2023-07-31T01:47:18;15.10;99.90
55004;DHT22;40900;52.710;6.438;2023-07-31T01:49:43;15.10;99.90
55004;DHT22;40900;52.710;6.438;2023-07-31T01:52:09;15.10;99.90
55004;DHT22;40900;52.710;6.438;2023-07-31T01:54:35;15.20;99.90
55004;DHT22;40900;52.710;6.438;2023-07-31T01:57:02;15.10;99.90
55004;DHT22;40900;52.710;6.438;2023-07-31T01:59:28;15.10;99.90
55004;DHT22;40900;52.710;6.438;2023-07-31T02:01:54;15.10;99.90
55004;DHT22;40900;52.710;6.438;2023-07-31T02:04:20;15.10;99.90
55004;DHT22;40900;52.710;6.438;2023-07-31T02:06:46;15.20;99.90
55004;DHT22;40900;52.710;6.438;2023-07-31T02:09:12;15.20;99.90
55004;DHT22;40900;52.710;6.438;2023-07-31T02:11:37;15.20;99.90
55004;DHT22;40900;52.710;6.438;2023-07-31T02:14:03;15.30;99.90
55004;DHT22;40900;52.710;6.438;2023-07-31T02:16:29;15.20;99.90
55004;DHT22;40900;52.710;6.438;2023-07-31T02:18:54;15.20;99.90
55004;DHT22;40900;52.710;6.438;2023-07-31T02:21:20;15.30;99.90
55004;DHT22;40900;52.710;6.438;2023-07-31T02:23:46;15.20;99.90
55004;DHT22;40900;52.710;6.438;2023-07-31T02:26:12;15.30;99.90
55004;DHT22;40900;52.710;6.438;2023-07-31T02:28:38;15.30;99.90
55004;DHT22;40900;52.710;6.438;2023-07-31T02:31:03;15.30;99.90
55004;DHT22;40900;52.710;6.438;2023-07-31T02:33:29;15.30;99.90
55004;DHT22;40900;52.710;6.438;2023-07-31T02:35:55;15.30;99.90
55004;DHT22;40900;52.710;6.438;2023-07-31T02:38:20;15.40;99.90
55004;DHT22;40900;52.710;6.438;2023-07-31T02:40:46;15.40;99.90
55004;DHT22;40900;52.710;6.438;2023-07-31T02:43:13;15.40;99.90
55004;DHT22;40900;52.710;6.438;2023-07-31T02:45:39;15.40;99.90
55004;DHT22;40900;52.710;6.438;2023-07-31T02:48:05;15.40;99.90
55004;DHT22;40900;52.710;6.438;2023-07-31T02:50:30;15.50;99.90
55004;DHT22;40900;52.710;6.438;2023-07-31T02:52:57;15.50;99.90
55004;DHT22;40900;52.710;6.438;2023-07-31T02:55:24;15.50;99.90
55004;DHT22;40900;52.710;6.438;2023-07-31T02:57:50;15.50;99.90
55004;DHT22;40900;52.710;6.438;2023-07-31T03:00:17;15.50;99.90
55004;DHT22;40900;52.710;6.438;2023-07-31T03:02:43;15.50;99.90
55004;DHT22;40900;52.710;6.438;2023-07-31T03:05:09;15.50;99.90
55004;DHT22;40900;52.710;6.438;2023-07-31T03:07:35;15.60;99.90
55004;DHT22;40900;52.710;6.438;2023-07-31T03:10:01;15.60;99.90
55004;DHT22;40900;52.710;6.438;2023-07-31T03:12:27;15.60;99.90
55004;DHT22;40900;52.710;6.438;2023-07-31T03:14:53;15.60;99.90
55004;DHT22;40900;52.710;6.438;2023-07-31T03:17:19;15.60;99.90
55004;DHT22;40900;52.710;6.438;2023-07-31T03:19:45;15.60;99.90
55004;DHT22;40900;52.710;6.438;2023-07-31T03:22:11;15.60;99.90
55004;DHT22;40900;52.710;6.438;2023-07-31T03:24:36;15.60;99.90
55004;DHT22;40900;52.710;6.438;2023-07-31T03:27:02;15.60;99.90
55004;DHT22;40900;52.710;6.438;2023-07-31T03:29:28;15.50;99.90
55004;DHT22;40900;52.710;6.438;2023-07-31T03:31:54;15.60;99.90
55004;DHT22;40900;52.710;6.438;2023-07-31T03:34:20;15.60;99.90
55004;DHT22;40900;52.710;6.438;2023-07-31T03:36:45;15.60;99.90
55004;DHT22;40900;52.710;6.438;2023-07-31T03:39:11;15.60;99.90
55004;DHT22;40900;52.710;6.438;2023-07-31T03:41:37;15.70;99.90
55004;DHT22;40900;52.710;6.438;2023-07-31T03:44:03;15.70;99.90
55004;DHT22;40900;52.710;6.438;2023-07-31T03:46:29;15.70;99.90
55004;DHT22;40900;52.710;6.438;2023-07-31T03:48:54;15.70;99.90
55004;DHT22;40900;52.710;6.438;2023-07-31T03:51:20;15.70;99.90
55004;DHT22;40900;52.710;6.438;2023-07-31T03:53:46;15.70;99.90
55004;DHT22;40900;52.710;6.438;2023-07-31T03:56:12;15.70;99.90
55004;DHT22;40900;52.710;6.438;2023-07-31T03:58:37;15.70;99.90
55004;DHT22;40900;52.710;6.438;2023-07-31T04:01:03;15.70;99.90
55004;DHT22;40900;52.710;6.438;2023-07-31T04:03:30;15.70;99.90
55004;DHT22;40900;52.710;6.438;2023-07-31T04:05:55;15.70;99.90
55004;DHT22;40900;52.710;6.438;2023-07-31T04:08:22;15.70;99.90
55004;DHT22;40900;52.710;6.438;2023-07-31T04:10:48;15.70;99.90
55004;DHT22;40900;52.710;6.438;2023-07-31T04:13:14;15.70;99.90
55004;DHT22;40900;52.710;6.438;2023-07-31T04:15:40;15.80;99.90
55004;DHT22;40900;52.710;6.438;2023-07-31T04:18:06;15.70;99.90
55004;DHT22;40900;52.710;6.438;2023-07-31T04:20:31;15.80;99.90
55004;DHT22;40900;52.710;6.438;2023-07-31T04:22:57;15.80;99.90
55004;DHT22;40900;52.710;6.438;2023-07-31T04:25:23;15.80;99.90
55004;DHT22;40900;52.710;6.438;2023-07-31T04:27:48;15.90;99.90
55004;DHT22;40900;52.710;6.438;2023-07-31T04:30:14;15.90;99.90
55004;DHT22;40900;52.710;6.438;2023-07-31T04:32:40;15.90;99.90
55004;DHT22;40900;52.710;6.438;2023-07-31T04:35:06;15.90;99.90
55004;DHT22;40900;52.710;6.438;2023-07-31T04:37:32;15.90;99.90
55004;DHT22;40900;52.710;6.438;2023-07-31T04:39:57;15.90;99.90
55004;DHT22;40900;52.710;6.438;2023-07-31T04:42:23;15.90;99.90
55004;DHT22;40900;52.710;6.438;2023-07-31T04:44:49;15.90;99.90
55004;DHT22;40900;52.710;6.438;2023-07-31T04:47:15;16.00;99.90
55004;DHT22;40900;52.710;6.438;2023-07-31T04:49:40;15.90;99.90
55004;DHT22;40900;52.710;6.438;2023-07-31T04:52:06;16.00;99.90
55004;DHT22;40900;52.710;6.438;2023-07-31T04:54:32;16.00;99.90
55004;DHT22;40900;52.710;6.438;2023-07-31T04:56:58;16.00;99.90
55004;DHT22;40900;52.710;6.438;2023-07-31T04:59:23;16.00;99.90
55004;DHT22;40900;52.710;6.438;2023-07-31T05:01:52;16.00;99.90
55004;DHT22;40900;52.710;6.438;2023-07-31T05:04:18;16.00;99.90
55004;DHT22;40900;52.710;6.438;2023-07-31T05:06:43;16.00;99.90
55004;DHT22;40900;52.710;6.438;2023-07-31T05:09:09;16.00;99.90
55004;DHT22;40900;52.710;6.438;2023-07-31T05:11:35;16.00;99.90
55004;DHT22;40900;52.710;6.438;2023-07-31T05:14:01;16.10;99.90
55004;DHT22;40900;52.710;6.438;2023-07-31T05:16:27;16.10;99.90
55004;DHT22;40900;52.710;6.438;2023-07-31T05:18:53;16.10;99.90
55004;DHT22;40900;52.710;6.438;2023-07-31T05:21:18;16.10;99.90
55004;DHT22;40900;52.710;6.438;2023-07-31T05:23:44;16.10;99.90
55004;DHT22;40900;52.710;6.438;2023-07-31T05:26:10;16.10;99.90
55004;DHT22;40900;52.710;6.438;2023-07-31T05:28:36;16.10;99.90
55004;DHT22;40900;52.710;6.438;2023-07-31T05:31:05;16.10;99.90
55004;DHT22;40900;52.710;6.438;2023-07-31T05:33:31;16.20;99.90
55004;DHT22;40900;52.710;6.438;2023-07-31T05:35:57;16.20;99.90
55004;DHT22;40900;52.710;6.438;2023-07-31T05:38:23;16.20;99.90
55004;DHT22;40900;52.710;6.438;2023-07-31T05:40:49;16.20;99.90
55004;DHT22;40900;52.710;6.438;2023-07-31T05:43:15;16.10;99.90
55004;DHT22;40900;52.710;6.438;2023-07-31T05:45:42;16.20;99.90
55004;DHT22;40900;52.710;6.438;2023-07-31T05:48:08;16.10;99.90
55004;DHT22;40900;52.710;6.438;2023-07-31T05:50:33;16.10;99.90
55004;DHT22;40900;52.710;6.438;2023-07-31T05:52:59;16.20;99.90
55004;DHT22;40900;52.710;6.438;2023-07-31T05:55:25;16.20;99.90
55004;DHT22;40900;52.710;6.438;2023-07-31T05:57:54;16.20;99.90
55004;DHT22;40900;52.710;6.438;2023-07-31T06:00:21;16.20;99.90
55004;DHT22;40900;52.710;6.438;2023-07-31T06:02:48;16.20;99.90
55004;DHT22;40900;52.710;6.438;2023-07-31T06:05:14;16.20;99.90
55004;DHT22;40900;52.710;6.438;2023-07-31T06:07:39;16.20;99.90
55004;DHT22;40900;52.710;6.438;2023-07-31T06:10:06;16.20;99.90
55004;DHT22;40900;52.710;6.438;2023-07-31T06:12:32;16.20;99.90
55004;DHT22;40900;52.710;6.438;2023-07-31T06:14:58;16.30;99.90
55004;DHT22;40900;52.710;6.438;2023-07-31T06:17:24;16.20;99.90
55004;DHT22;40900;52.710;6.438;2023-07-31T06:19:50;16.20;99.90
55004;DHT22;40900;52.710;6.438;2023-07-31T06:22:16;16.20;99.90
55004;DHT22;40900;52.710;6.438;2023-07-31T06:24:42;16.20;99.90
55004;DHT22;40900;52.710;6.438;2023-07-31T06:27:07;16.20;99.90
55004;DHT22;40900;52.710;6.438;2023-07-31T06:29:35;16.20;99.90
55004;DHT22;40900;52.710;6.438;2023-07-31T06:32:00;16.20;99.90
55004;DHT22;40900;52.710;6.438;2023-07-31T06:34:26;16.20;99.90
55004;DHT22;40900;52.710;6.438;2023-07-31T06:36:52;16.20;99.90
55004;DHT22;40900;52.710;6.438;2023-07-31T06:39:18;16.20;99.90
55004;DHT22;40900;52.710;6.438;2023-07-31T06:41:44;16.10;99.90
55004;DHT22;40900;52.710;6.438;2023-07-31T06:44:10;16.10;99.90
55004;DHT22;40900;52.710;6.438;2023-07-31T06:46:36;16.20;99.90
55004;DHT22;40900;52.710;6.438;2023-07-31T06:49:02;16.10;99.90
55004;DHT22;40900;52.710;6.438;2023-07-31T06:51:28;16.00;99.90
55004;DHT22;40900;52.710;6.438;2023-07-31T06:53:54;16.10;99.90
55004;DHT22;40900;52.710;6.438;2023-07-31T06:56:21;16.00;99.90
55004;DHT22;40900;52.710;6.438;2023-07-31T06:58:47;16.10;99.90
55004;DHT22;40900;52.710;6.438;2023-07-31T07:01:12;16.00;99.90
55004;DHT22;40900;52.710;6.438;2023-07-31T07:03:38;16.00;99.90
55004;DHT22;40900;52.710;6.438;2023-07-31T07:06:04;16.00;99.90
55004;DHT22;40900;52.710;6.438;2023-07-31T07:08:30;16.00;99.90
55004;DHT22;40900;52.710;6.438;2023-07-31T07:10:55;16.00;99.90
55004;DHT22;40900;52.710;6.438;2023-07-31T07:13:22;16.10;99.90
55004;DHT22;40900;52.710;6.438;2023-07-31T07:15:48;16.10;99.90
55004;DHT22;40900;52.710;6.438;2023-07-31T07:18:15;16.10;99.90
55004;DHT22;40900;52.710;6.438;2023-07-31T07:20:49;16.10;99.90
55004;DHT22;40900;52.710;6.438;2023-07-31T07:23:15;16.20;99.90
55004;DHT22;40900;52.710;6.438;2023-07-31T07:25:42;16.10;99.90
55004;DHT22;40900;52.710;6.438;2023-07-31T07:28:08;16.20;99.90
55004;DHT22;40900;52.710;6.438;2023-07-31T07:30:34;16.20;99.90
55004;DHT22;40900;52.710;6.438;2023-07-31T07:33:00;16.10;99.90
55004;DHT22;40900;52.710;6.438;2023-07-31T07:35:27;16.10;99.90
55004;DHT22;40900;52.710;6.438;2023-07-31T07:37:54;16.10;99.90
55004;DHT22;40900;52.710;6.438;2023-07-31T07:40:20;16.10;99.90
55004;DHT22;40900;52.710;6.438;2023-07-31T07:42:46;16.20;99.90
55004;DHT22;40900;52.710;6.438;2023-07-31T07:45:12;16.20;99.90
55004;DHT22;40900;52.710;6.438;2023-07-31T07:47:41;16.20;99.90
55004;DHT22;40900;52.710;6.438;2023-07-31T07:50:07;16.20;99.90
55004;DHT22;40900;52.710;6.438;2023-07-31T07:52:33;16.20;99.90
55004;DHT22;40900;52.710;6.438;2023-07-31T07:54:59;16.30;99.90
55004;DHT22;40900;52.710;6.438;2023-07-31T07:57:26;16.20;99.90
55004;DHT22;40900;52.710;6.438;2023-07-31T07:59:58;16.20;99.90
55004;DHT22;40900;52.710;6.438;2023-07-31T08:02:23;16.20;99.90
55004;DHT22;40900;52.710;6.438;2023-07-31T08:04:49;16.30;99.90
55004;DHT22;40900;52.710;6.438;2023-07-31T08:07:15;16.30;99.90
55004;DHT22;40900;52.710;6.438;2023-07-31T08:09:41;16.30;99.90
55004;DHT22;40900;52.710;6.438;2023-07-31T08:12:07;16.30;99.90
55004;DHT22;40900;52.710;6.438;2023-07-31T08:14:33;16.30;99.90
55004;DHT22;40900;52.710;6.438;2023-07-31T08:16:59;16.40;99.90
55004;DHT22;40900;52.710;6.438;2023-07-31T08:19:31;16.40;99.90
55004;DHT22;40900;52.710;6.438;2023-07-31T08:21:57;16.40;99.90
55004;DHT22;40900;52.710;6.438;2023-07-31T08:24:24;16.40;99.90
55004;DHT22;40900;52.710;6.438;2023-07-31T08:26:50;16.40;99.90
55004;DHT22;40900;52.710;6.438;2023-07-31T08:29:15;16.40;99.90
55004;DHT22;40900;52.710;6.438;2023-07-31T08:31:41;16.40;99.90
55004;DHT22;40900;52.710;6.438;2023-07-31T08:34:07;16.50;99.90
55004;DHT22;40900;52.710;6.438;2023-07-31T08:36:33;16.50;99.90
55004;DHT22;40900;52.710;6.438;2023-07-31T08:38:59;16.50;99.90
55004;DHT22;40900;52.710;6.438;2023-07-31T08:41:24;16.60;99.90
55004;DHT22;40900;52.710;6.438;2023-07-31T08:43:52;16.60;99.90
55004;DHT22;40900;52.710;6.438;2023-07-31T08:46:18;16.60;99.90
55004;DHT22;40900;52.710;6.438;2023-07-31T08:48:45;16.70;99.90
55004;DHT22;40900;52.710;6.438;2023-07-31T08:51:14;16.60;99.90
55004;DHT22;40900;52.710;6.438;2023-07-31T08:53:40;16.60;99.90
55004;DHT22;40900;52.710;6.438;2023-07-31T08:56:06;16.60;99.90
55004;DHT22;40900;52.710;6.438;2023-07-31T08:58:32;16.60;99.90
55004;DHT22;40900;52.710;6.438;2023-07-31T09:01:04;16.70;99.90
55004;DHT22;40900;52.710;6.438;2023-07-31T09:03:33;16.70;99.90
55004;DHT22;40900;52.710;6.438;2023-07-31T09:06:00;16.80;99.90
55004;DHT22;40900;52.710;6.438;2023-07-31T09:08:30;16.90;99.90
55004;DHT22;40900;52.710;6.438;2023-07-31T09:11:00;16.90;99.90
55004;DHT22;40900;52.710;6.438;2023-07-31T09:13:29;16.90;99.90
55004;DHT22;40900;52.710;6.438;2023-07-31T09:15:55;16.90;99.90
55004;DHT22;40900;52.710;6.438;2023-07-31T09:18:20;16.90;99.90
55004;DHT22;40900;52.710;6.438;2023-07-31T09:21:04;17.00;99.90
55004;DHT22;40900;52.710;6.438;2023-07-31T09:23:44;17.00;99.90
55004;DHT22;40900;52.710;6.438;2023-07-31T09:26:11;17.00;99.90
55004;DHT22;40900;52.710;6.438;2023-07-31T09:28:36;17.00;99.90
55004;DHT22;40900;52.710;6.438;2023-07-31T09:31:02;17.10;99.90
55004;DHT22;40900;52.710;6.438;2023-07-31T09:33:29;17.00;99.90
55004;DHT22;40900;52.710;6.438;2023-07-31T09:35:58;17.00;99.90
55004;DHT22;40900;52.710;6.438;2023-07-31T09:38:25;17.00;99.90
55004;DHT22;40900;52.710;6.438;2023-07-31T09:40:51;17.00;99.90
55004;DHT22;40900;52.710;6.438;2023-07-31T09:43:18;17.10;99.90
55004;DHT22;40900;52.710;6.438;2023-07-31T09:45:45;17.10;99.90
55004;DHT22;40900;52.710;6.438;2023-07-31T09:48:15;17.20;99.90
55004;DHT22;40900;52.710;6.438;2023-07-31T09:50:48;17.20;99.90
55004;DHT22;40900;52.710;6.438;2023-07-31T09:53:15;17.30;99.90
55004;DHT22;40900;52.710;6.438;2023-07-31T09:55:42;17.30;99.90
55004;DHT22;40900;52.710;6.438;2023-07-31T09:58:11;17.30;99.90
55004;DHT22;40900;52.710;6.438;2023-07-31T10:00:37;17.30;99.90
55004;DHT22;40900;52.710;6.438;2023-07-31T10:03:10;17.40;99.90
55004;DHT22;40900;52.710;6.438;2023-07-31T10:05:49;17.40;99.90
55004;DHT22;40900;52.710;6.438;2023-07-31T10:08:16;17.40;99.90
55004;DHT22;40900;52.710;6.438;2023-07-31T10:10:44;17.40;99.90
55004;DHT22;40900;52.710;6.438;2023-07-31T10:13:11;17.50;99.90
55004;DHT22;40900;52.710;6.438;2023-07-31T10:15:37;17.50;99.90
55004;DHT22;40900;52.710;6.438;2023-07-31T10:18:05;17.50;99.90
55004;DHT22;40900;52.710;6.438;2023-07-31T10:20:31;17.50;99.90
55004;DHT22;40900;52.710;6.438;2023-07-31T10:22:57;17.50;99.90
55004;DHT22;40900;52.710;6.438;2023-07-31T10:25:27;17.60;99.90
55004;DHT22;40900;52.710;6.438;2023-07-31T10:27:53;17.60;99.90
55004;DHT22;40900;52.710;6.438;2023-07-31T10:30:23;17.70;99.90
55004;DHT22;40900;52.710;6.438;2023-07-31T10:32:51;17.90;99.90
55004;DHT22;40900;52.710;6.438;2023-07-31T10:35:19;18.00;99.90
55004;DHT22;40900;52.710;6.438;2023-07-31T10:37:47;18.00;99.90
55004;DHT22;40900;52.710;6.438;2023-07-31T10:40:25;18.00;99.90
55004;DHT22;40900;52.710;6.438;2023-07-31T10:42:55;18.00;99.90
55004;DHT22;40900;52.710;6.438;2023-07-31T10:48:22;18.00;99.90
55004;DHT22;40900;52.710;6.438;2023-07-31T10:50:59;18.10;99.90
55004;DHT22;40900;52.710;6.438;2023-07-31T10:53:30;18.10;99.90
55004;DHT22;40900;52.710;6.438;2023-07-31T10:56:01;18.20;99.90
55004;DHT22;40900;52.710;6.438;2023-07-31T10:58:27;18.20;99.90
55004;DHT22;40900;52.710;6.438;2023-07-31T11:00:57;18.10;99.90
55004;DHT22;40900;52.710;6.438;2023-07-31T11:06:10;18.10;99.90
55004;DHT22;40900;52.710;6.438;2023-07-31T11:08:42;18.00;99.90
55004;DHT22;40900;52.710;6.438;2023-07-31T11:11:13;18.00;99.90
55004;DHT22;40900;52.710;6.438;2023-07-31T11:13:46;18.00;99.90
55004;DHT22;40900;52.710;6.438;2023-07-31T11:16:14;18.00;99.90
55004;DHT22;40900;52.710;6.438;2023-07-31T11:18:44;18.00;99.90
55004;DHT22;40900;52.710;6.438;2023-07-31T11:21:14;18.00;99.90
55004;DHT22;40900;52.710;6.438;2023-07-31T11:23:41;18.10;99.90
55004;DHT22;40900;52.710;6.438;2023-07-31T11:26:07;18.10;99.90
55004;DHT22;40900;52.710;6.438;2023-07-31T11:28:34;18.20;99.90
55004;DHT22;40900;52.710;6.438;2023-07-31T11:31:01;18.20;99.90
55004;DHT22;40900;52.710;6.438;2023-07-31T11:33:27;18.20;99.90
55004;DHT22;40900;52.710;6.438;2023-07-31T11:35:53;18.10;99.90
55004;DHT22;40900;52.710;6.438;2023-07-31T11:38:27;18.10;99.90
55004;DHT22;40900;52.710;6.438;2023-07-31T11:40:54;18.20;99.90
55004;DHT22;40900;52.710;6.438;2023-07-31T11:43:20;18.20;99.90
55004;DHT22;40900;52.710;6.438;2023-07-31T11:45:51;18.10;99.90
55004;DHT22;40900;52.710;6.438;2023-07-31T11:48:24;18.20;99.90
55004;DHT22;40900;52.710;6.438;2023-07-31T11:50:53;18.20;99.90
55004;DHT22;40900;52.710;6.438;2023-07-31T11:53:45;18.30;99.90
55004;DHT22;40900;52.710;6.438;2023-07-31T11:56:17;18.30;99.90
55004;DHT22;40900;52.710;6.438;2023-07-31T11:58:46;18.20;99.90
55004;DHT22;40900;52.710;6.438;2023-07-31T12:01:14;18.30;99.90
55004;DHT22;40900;52.710;6.438;2023-07-31T12:03:41;18.20;99.90
55004;DHT22;40900;52.710;6.438;2023-07-31T12:06:08;18.30;99.90
55004;DHT22;40900;52.710;6.438;2023-07-31T12:08:34;18.40;99.90
55004;DHT22;40900;52.710;6.438;2023-07-31T12:11:04;18.50;99.90
55004;DHT22;40900;52.710;6.438;2023-07-31T12:13:31;18.70;99.90
55004;DHT22;40900;52.710;6.438;2023-07-31T12:15:59;18.70;99.90
55004;DHT22;40900;52.710;6.438;2023-07-31T12:18:27;18.80;99.90
55004;DHT22;40900;52.710;6.438;2023-07-31T12:20:58;18.60;99.90
55004;DHT22;40900;52.710;6.438;2023-07-31T12:23:29;18.50;99.90
55004;DHT22;40900;52.710;6.438;2023-07-31T12:26:12;18.50;99.90
55004;DHT22;40900;52.710;6.438;2023-07-31T12:28:46;18.60;99.90
55004;DHT22;40900;52.710;6.438;2023-07-31T12:31:13;18.70;99.90
55004;DHT22;40900;52.710;6.438;2023-07-31T12:33:41;18.90;99.90
55004;DHT22;40900;52.710;6.438;2023-07-31T12:36:11;19.30;99.90
55004;DHT22;40900;52.710;6.438;2023-07-31T12:38:38;19.50;99.90
55004;DHT22;40900;52.710;6.438;2023-07-31T12:41:04;19.80;99.90
55004;DHT22;40900;52.710;6.438;2023-07-31T12:43:31;20.00;99.90
55004;DHT22;40900;52.710;6.438;2023-07-31T12:45:57;20.10;99.90
55004;DHT22;40900;52.710;6.438;2023-07-31T12:48:23;20.00;99.90
55004;DHT22;40900;52.710;6.438;2023-07-31T12:50:49;19.90;99.90
55004;DHT22;40900;52.710;6.438;2023-07-31T12:53:15;19.80;99.90
55004;DHT22;40900;52.710;6.438;2023-07-31T12:55:41;19.50;99.90
55004;DHT22;40900;52.710;6.438;2023-07-31T12:58:07;19.20;99.90
55004;DHT22;40900;52.710;6.438;2023-07-31T13:00:33;19.00;99.90
55004;DHT22;40900;52.710;6.438;2023-07-31T13:03:00;19.00;99.90
55004;DHT22;40900;52.710;6.438;2023-07-31T13:05:26;18.90;99.90
55004;DHT22;40900;52.710;6.438;2023-07-31T13:07:52;18.90;99.90
55004;DHT22;40900;52.710;6.438;2023-07-31T13:10:18;18.90;99.90
55004;DHT22;40900;52.710;6.438;2023-07-31T13:12:44;19.10;99.90
55004;DHT22;40900;52.710;6.438;2023-07-31T13:15:10;19.20;99.90
55004;DHT22;40900;52.710;6.438;2023-07-31T13:17:36;19.20;99.90
55004;DHT22;40900;52.710;6.438;2023-07-31T13:20:03;19.20;99.90
55004;DHT22;40900;52.710;6.438;2023-07-31T13:22:30;19.20;99.90
55004;DHT22;40900;52.710;6.438;2023-07-31T13:24:56;19.30;99.90
55004;DHT22;40900;52.710;6.438;2023-07-31T13:27:22;19.20;99.90
55004;DHT22;40900;52.710;6.438;2023-07-31T13:29:48;19.10;99.90
55004;DHT22;40900;52.710;6.438;2023-07-31T13:32:15;19.10;99.90
55004;DHT22;40900;52.710;6.438;2023-07-31T13:34:41;19.00;99.90
55004;DHT22;40900;52.710;6.438;2023-07-31T13:37:07;18.90;99.90
55004;DHT22;40900;52.710;6.438;2023-07-31T13:39:33;18.80;99.90
55004;DHT22;40900;52.710;6.438;2023-07-31T13:41:59;18.90;99.90
55004;DHT22;40900;52.710;6.438;2023-07-31T13:44:28;18.90;99.90
55004;DHT22;40900;52.710;6.438;2023-07-31T13:46:54;18.90;99.90
55004;DHT22;40900;52.710;6.438;2023-07-31T13:49:20;18.90;99.90
55004;DHT22;40900;52.710;6.438;2023-07-31T13:51:45;18.90;99.90
55004;DHT22;40900;52.710;6.438;2023-07-31T13:54:11;19.00;99.90
55004;DHT22;40900;52.710;6.438;2023-07-31T13:56:38;19.00;99.90
55004;DHT22;40900;52.710;6.438;2023-07-31T13:59:04;19.00;99.90
55004;DHT22;40900;52.710;6.438;2023-07-31T14:01:30;18.90;99.90
55004;DHT22;40900;52.710;6.438;2023-07-31T14:03:56;18.90;99.90
55004;DHT22;40900;52.710;6.438;2023-07-31T14:06:22;18.90;99.90
55004;DHT22;40900;52.710;6.438;2023-07-31T14:08:47;18.90;99.90
55004;DHT22;40900;52.710;6.438;2023-07-31T14:11:13;19.00;99.90
55004;DHT22;40900;52.710;6.438;2023-07-31T14:13:39;19.00;99.90
55004;DHT22;40900;52.710;6.438;2023-07-31T14:16:05;19.10;99.90
55004;DHT22;40900;52.710;6.438;2023-07-31T14:18:30;19.20;99.90
55004;DHT22;40900;52.710;6.438;2023-07-31T14:20:56;19.20;99.90
55004;DHT22;40900;52.710;6.438;2023-07-31T14:23:22;19.30;99.90
55004;DHT22;40900;52.710;6.438;2023-07-31T14:25:48;19.30;99.90
55004;DHT22;40900;52.710;6.438;2023-07-31T14:28:14;19.40;99.90
55004;DHT22;40900;52.710;6.438;2023-07-31T14:30:39;19.30;99.90
55004;DHT22;40900;52.710;6.438;2023-07-31T14:33:05;19.30;99.90
55004;DHT22;40900;52.710;6.438;2023-07-31T14:35:31;19.30;99.90
55004;DHT22;40900;52.710;6.438;2023-07-31T14:37:57;19.30;99.90
55004;DHT22;40900;52.710;6.438;2023-07-31T14:40:22;19.30;99.90
55004;DHT22;40900;52.710;6.438;2023-07-31T14:42:48;19.20;99.90
55004;DHT22;40900;52.710;6.438;2023-07-31T14:45:14;19.10;99.90
55004;DHT22;40900;52.710;6.438;2023-07-31T14:47:40;19.10;99.90
55004;DHT22;40900;52.710;6.438;2023-07-31T14:50:06;19.20;99.90
55004;DHT22;40900;52.710;6.438;2023-07-31T14:52:32;19.10;99.90
55004;DHT22;40900;52.710;6.438;2023-07-31T14:54:58;19.10;99.90
55004;DHT22;40900;52.710;6.438;2023-07-31T14:57:23;19.10;99.90
55004;DHT22;40900;52.710;6.438;2023-07-31T14:59:49;19.10;99.90
55004;DHT22;40900;52.710;6.438;2023-07-31T15:02:15;19.10;99.90
55004;DHT22;40900;52.710;6.438;2023-07-31T15:04:41;19.10;99.90
55004;DHT22;40900;52.710;6.438;2023-07-31T15:07:07;19.00;99.90
55004;DHT22;40900;52.710;6.438;2023-07-31T15:09:33;19.00;99.90
55004;DHT22;40900;52.710;6.438;2023-07-31T15:11:59;19.00;99.90
55004;DHT22;40900;52.710;6.438;2023-07-31T15:14:25;19.00;99.90
55004;DHT22;40900;52.710;6.438;2023-07-31T15:16:53;19.00;99.90
55004;DHT22;40900;52.710;6.438;2023-07-31T15:19:18;19.00;99.90
55004;DHT22;40900;52.710;6.438;2023-07-31T15:21:44;19.00;99.90
55004;DHT22;40900;52.710;6.438;2023-07-31T15:24:10;19.00;99.90
55004;DHT22;40900;52.710;6.438;2023-07-31T15:26:37;19.00;99.90
55004;DHT22;40900;52.710;6.438;2023-07-31T15:29:06;18.90;99.90
55004;DHT22;40900;52.710;6.438;2023-07-31T15:31:40;18.90;99.90
55004;DHT22;40900;52.710;6.438;2023-07-31T15:34:06;18.70;99.90
55004;DHT22;40900;52.710;6.438;2023-07-31T15:36:32;18.60;99.90